Time;durP1;ratioP1;P1;durP2;ratioP2;P2;SDS_P1;SDS_P2;PMS_P1;PMS_P2;Temp;Humidity;BMP_temperature;BMP_pressure;BME280_temperature;BME280_humidity;BME280_pressure;Samples;Min_cycle;Max_cycle;Signal;HPM_P1;HPM_P2
2021/09/30 00:01:59;;;;;;;34.3;30.6;;;;;;;13.42;100;99125.6;;;;
2021/09/30 00:12:05;;;;;;;38.2;27.9;;;;;;;13.49;100;99134.07;;;;
2021/09/30 00:42:02;;;;;;;30.9;24;;;;;;;13.35;100;99138.79;;;;
2021/09/30 00:52:02;;;;;;;36.6;25.6;;;;;;;13.29;100;99139.23;;;;
2021/09/30 03:01:51;;;;;;;20.7;15.9;;;;;;;13.83;100;99213.86;;;;
2021/09/30 03:11:52;;;;;;;20.7;14.4;;;;;;;13.8;100;99214.48;;;;
2021/09/30 03:31:49;;;;;;;14.5;12.9;;;;;;;13.93;100;99230.63;;;;
2021/09/30 03:41:49;;;;;;;16.1;14.4;;;;;;;14.09;100;99225.59;;;;
2021/09/30 03:51:56;;;;;;;15.2;13;;;;;;;14.16;100;99239.46;;;;
2021/09/30 04:01:52;;;;;;;16.7;13.8;;;;;;;14.07;100;99255.72;;;;
2021/09/30 04:11:48;;;;;;;14;12.3;;;;;;;14.05;100;99271.5;;;;
2021/09/30 04:21:47;;;;;;;17.2;14.7;;;;;;;13.98;100;99275.77;;;;
2021/09/30 04:31:47;;;;;;;18.3;16.2;;;;;;;14.02;100;99269.39;;;;
2021/09/30 04:41:47;;;;;;;24.1;19;;;;;;;13.92;100;99277.8;;;;
2021/09/30 04:51:46;;;;;;;27.6;18.2;;;;;;;13.8;100;99299.28;;;;
2021/09/30 05:01:46;;;;;;;21.1;18.9;;;;;;;13.97;100;99299.36;;;;
2021/09/30 05:11:51;;;;;;;28.2;22.3;;;;;;;14.05;100;99314.07;;;;
2021/09/30 05:21:45;;;;;;;24.7;20.8;;;;;;;14.04;100;99318.69;;;;
2021/09/30 05:31:45;;;;;;;27.6;22.3;;;;;;;14.03;100;99332.53;;;;
2021/09/30 05:41:48;;;;;;;26.6;23.8;;;;;;;14.06;100;99353.59;;;;
2021/09/30 05:51:44;;;;;;;24.3;21.8;;;;;;;14;100;99363.78;;;;
2021/09/30 06:11:56;;;;;;;27.2;24.4;;;;;;;13.89;100;99400.38;;;;
2021/09/30 06:21:43;;;;;;;28.2;25.2;;;;;;;13.78;100;99407.14;;;;
2021/09/30 06:31:43;;;;;;;31.5;25.9;;;;;;;13.59;100;99423.59;;;;
2021/09/30 06:41:42;;;;;;;26.6;22.1;;;;;;;13.46;100;99448.82;;;;
2021/09/30 06:51:42;;;;;;;26.9;22.4;;;;;;;13.28;100;99467.91;;;;
2021/09/30 07:01:41;;;;;;;27.6;22.5;;;;;;;12.86;100;99477.92;;;;
2021/09/30 07:11:41;;;;;;;27;21.3;;;;;;;12.8;100;99494.56;;;;
2021/09/30 07:21:40;;;;;;;24;21;;;;;;;12.82;100;99505.87;;;;
2021/09/30 07:31:40;;;;;;;22.1;17.3;;;;;;;13.06;100;99509.19;;;;
2021/09/30 07:41:40;;;;;;;23.5;15.6;;;;;;;12.98;100;99524.21;;;;
2021/09/30 07:51:39;;;;;;;24.1;15.8;;;;;;;13.05;100;99534.66;;;;
2021/09/30 08:01:39;;;;;;;15.1;12;;;;;;;12.97;100;99560.52;;;;
2021/09/30 08:11:38;;;;;;;17.6;13.4;;;;;;;12.87;100;99574.23;;;;
2021/09/30 08:21:44;;;;;;;20.4;14.6;;;;;;;13.1;100;99567.86;;;;
2021/09/30 08:31:37;;;;;;;20.3;16.2;;;;;;;13.42;100;99585.92;;;;
2021/09/30 08:41:37;;;;;;;15.5;13.9;;;;;;;13.38;100;99586.81;;;;
2021/09/30 08:51:36;;;;;;;20.4;13.9;;;;;;;13.57;100;99601.84;;;;
2021/09/30 09:01:36;;;;;;;15.5;12.9;;;;;;;13.33;100;99622.13;;;;
2021/09/30 09:11:36;;;;;;;15.2;13.7;;;;;;;13.36;100;99626.94;;;;
2021/09/30 09:21:35;;;;;;;16.3;13;;;;;;;13.37;100;99633.94;;;;
2021/09/30 09:31:35;;;;;;;14.2;11.6;;;;;;;13.25;100;99645.28;;;;
2021/09/30 09:41:35;;;;;;;15.1;9.9;;;;;;;13.31;100;99648.69;;;;
2021/09/30 09:51:34;;;;;;;17.2;12.5;;;;;;;13.5;100;99655.61;;;;
2021/09/30 10:01:34;;;;;;;12.6;9;;;;;;;13.36;100;99670.27;;;;
2021/09/30 10:11:33;;;;;;;12.1;9.9;;;;;;;13.39;100;99675.08;;;;
2021/09/30 10:21:33;;;;;;;14.5;11.3;;;;;;;13.4;100;99674.77;;;;
2021/09/30 10:31:33;;;;;;;10.5;8;;;;;;;13.55;100;99676.39;;;;
2021/09/30 10:41:32;;;;;;;12.3;8.8;;;;;;;13.49;100;99674.89;;;;
2021/09/30 10:51:32;;;;;;;11;7.4;;;;;;;13.57;100;99669.56;;;;
2021/09/30 11:01:32;;;;;;;9;5.4;;;;;;;13.48;100;99684.91;;;;
2021/09/30 11:11:33;;;;;;;8.4;6.3;;;;;;;13.4;100;99680.18;;;;
2021/09/30 11:21:44;;;;;;;9.7;5.5;;;;;;;13.16;100;99676.02;;;;
2021/09/30 11:31:33;;;;;;;8;5.2;;;;;;;13.05;100;99675.39;;;;
2021/09/30 11:41:35;;;;;;;7.7;4.6;;;;;;;13.13;100;99679.33;;;;
2021/09/30 11:51:38;;;;;;;7.6;3.9;;;;;;;12.86;100;99677.32;;;;
2021/09/30 12:01:41;;;;;;;10.3;5.7;;;;;;;12.82;100;99682.52;;;;
2021/09/30 12:11:32;;;;;;;15.9;5.6;;;;;;;12.68;100;99684.36;;;;
2021/09/30 12:21:42;;;;;;;8;4.2;;;;;;;12.92;100;99687.77;;;;
2021/09/30 12:31:30;;;;;;;7.5;3.2;;;;;;;13.15;100;99690.68;;;;
2021/09/30 12:41:31;;;;;;;9.3;3.3;;;;;;;13.15;100;99690.68;;;;
2021/09/30 12:51:34;;;;;;;11.5;3.4;;;;;;;13.43;100;99689.63;;;;
2021/09/30 13:01:35;;;;;;;9.9;4.9;;;;;;;13.44;100;99691.22;;;;
2021/09/30 13:11:32;;;;;;;6.2;4.3;;;;;;;13.37;100;99688.09;;;;
2021/09/30 13:21:30;;;;;;;9.5;3.9;;;;;;;13.05;100;99675.39;;;;
2021/09/30 13:31:26;;;;;;;7.6;5.4;;;;;;;13.09;100;99674.52;;;;
2021/09/30 13:41:25;;;;;;;9.1;4.8;;;;;;;13.17;100;99680.34;;;;
2021/09/30 13:51:25;;;;;;;7.8;5.3;;;;;;;13.34;100;99689.5;;;;
2021/09/30 14:01:25;;;;;;;9.2;4.4;;;;;;;13.6;100;99681.72;;;;
2021/09/30 14:11:24;;;;;;;7.3;4.7;;;;;;;13.72;100;99684.72;;;;
2021/09/30 14:21:24;;;;;;;8.2;4.8;;;;;;;13.59;100;99670.08;;;;
2021/09/30 14:31:24;;;;;;;5.6;3.7;;;;;;;13.64;100;99652.91;;;;
2021/09/30 14:41:23;;;;;;;12.4;5;;;;;;;13.25;100;99655.3;;;;
2021/09/30 14:51:23;;;;;;;9.5;4.2;;;;;;;13.16;100;99648.95;;;;
2021/09/30 15:01:23;;;;;;;10.4;7.9;;;;;;;13;100;99642.99;;;;
2021/09/30 15:11:22;;;;;;;11.8;6.8;;;;;;;12.86;100;99653.78;;;;
2021/09/30 15:21:25;;;;;;;9.1;5.4;;;;;;;12.81;100;99648.44;;;;
2021/09/30 15:31:21;;;;;;;12.4;8.1;;;;;;;12.57;100;99662.08;;;;
2021/09/30 15:41:22;;;;;;;10.1;5.9;;;;;;;12.37;100;99666.98;;;;
2021/09/30 15:51:20;;;;;;;22.1;19.6;;;;;;;12.58;100;99671;;;;
2021/09/30 16:01:20;;;;;;;17.6;11.7;;;;;;;12.6;100;99671.5;;;;
2021/09/30 16:11:19;;;;;;;15.7;10.4;;;;;;;12.21;100;99676.42;;;;
2021/09/30 16:21:19;;;;;;;25.8;17.6;;;;;;;12.28;100;99677.67;;;;
2021/09/30 16:31:18;;;;;;;16.2;13.1;;;;;;;12.01;100;99691.79;;;;
2021/09/30 16:41:18;;;;;;;15.4;11.2;;;;;;;11.9;100;99703.84;;;;
2021/09/30 16:51:17;;;;;;;20.1;9.9;;;;;;;11.79;100;99701.53;;;;
2021/09/30 17:01:18;;;;;;;12.1;8.5;;;;;;;11.65;100;99701.39;;;;
2021/09/30 17:11:19;;;;;;;10.3;7.1;;;;;;;11.73;100;99706.17;;;;
2021/09/30 17:21:17;;;;;;;16.6;9.1;;;;;;;11.76;100;99708.33;;;;
2021/09/30 17:31:15;;;;;;;13;8.7;;;;;;;11.56;100;99708.49;;;;
2021/09/30 17:41:14;;;;;;;17.7;9.9;;;;;;;11.54;100;99707.98;;;;
2021/09/30 17:51:14;;;;;;;13.8;8.9;;;;;;;11.4;100;99712.45;;;;
2021/09/30 18:01:13;;;;;;;11;9.2;;;;;;;11.31;100;99716.87;;;;
2021/09/30 18:11:12;;;;;;;14.8;11;;;;;;;11.24;100;99722.59;;;;
2021/09/30 18:21:17;;;;;;;13;11.6;;;;;;;11.04;100;99712.77;;;;
2021/09/30 18:31:11;;;;;;;16.4;13.1;;;;;;;10.85;100;99716.45;;;;
2021/09/30 18:41:11;;;;;;;17;10.1;;;;;;;10.87;100;99739.34;;;;
2021/09/30 18:51:09;;;;;;;17.2;10.2;;;;;;;10.93;100;99746.3;;;;
2021/09/30 19:01:09;;;;;;;21.1;13.5;;;;;;;10.86;100;99745.84;;;;
2021/09/30 19:11:08;;;;;;;13.6;11.9;;;;;;;10.89;100;99749.86;;;;
2021/09/30 19:21:07;;;;;;;17.1;13;;;;;;;10.75;100;99744.3;;;;
2021/09/30 19:31:06;;;;;;;16.2;11.4;;;;;;;10.72;100;99736.77;;;;
2021/09/30 19:41:06;;;;;;;16.7;11;;;;;;;10.52;100;99715.31;;;;
2021/09/30 19:51:05;;;;;;;12;9.7;;;;;;;10.51;100;99721.8;;;;
2021/09/30 20:01:05;;;;;;;11.2;8.6;;;;;;;10.35;100;99722.95;;;;
2021/09/30 20:11:03;;;;;;;16.4;10.5;;;;;;;10.02;100;99744.11;;;;
2021/09/30 20:21:03;;;;;;;19;13.8;;;;;;;9.6;100;99771.42;;;;
2021/09/30 20:31:02;;;;;;;22;16.4;;;;;;;9.25;100;99770.64;;;;
2021/09/30 20:41:01;;;;;;;21;14.8;;;;;;;8.87;100;99767.41;;;;
2021/09/30 20:51:00;;;;;;;18.4;14.4;;;;;;;8.48;100;99766.24;;;;
2021/09/30 21:00:59;;;;;;;28.9;18.6;;;;;;;8.25;100;99772.87;;;;
2021/09/30 21:10:58;;;;;;;18.2;15.6;;;;;;;8.07;100;99782.19;;;;
2021/09/30 21:20:56;;;;;;;16.4;12.8;;;;;;;7.71;100;99756.22;;;;
2021/09/30 21:30:55;;;;;;;16;13.2;;;;;;;7.62;100;99754.3;;;;
2021/09/30 21:40:54;;;;;;;17.2;13.3;;;;;;;7.35;100;99765.94;;;;
2021/09/30 21:50:53;;;;;;;18.1;15.9;;;;;;;7.12;100;99763.59;;;;
2021/09/30 22:00:52;;;;;;;19.3;15.8;;;;;;;7;100;99765.65;;;;
2021/09/30 22:10:51;;;;;;;18;16;;;;;;;6.79;100;99764.66;;;;
2021/09/30 22:20:50;;;;;;;15.3;12.6;;;;;;;6.61;100;99778.41;;;;
2021/09/30 22:30:48;;;;;;;15.6;14;;;;;;;6.43;100;99786.77;;;;
2021/09/30 22:40:47;;;;;;;22.8;14.4;;;;;;;6.29;100;99786.34;;;;
2021/09/30 22:50:46;;;;;;;22.8;14.2;;;;;;;6.17;100;99787.55;;;;
2021/09/30 23:00:44;;;;;;;21.6;13.8;;;;;;;6.07;100;99777.53;;;;
2021/09/30 23:10:43;;;;;;;16.7;14.9;;;;;;;6;100;99782.25;;;;
2021/09/30 23:20:42;;;;;;;20.2;14.9;;;;;;;5.86;100;99778.32;;;;
2021/09/30 23:30:40;;;;;;;16.4;10.3;;;;;;;5.61;100;99773.4;;;;
2021/09/30 23:40:39;;;;;;;13.8;11.5;;;;;;;5.46;100;99778.51;;;;
2021/09/30 23:50:38;;;;;;;12.5;10.3;;;;;;;5.38;100;99776.27;;;;
